createdAt,value
2023-05-10T00:00:11.087Z,100627.91
2023-05-10T00:03:19.380Z,100620.69
2023-05-10T00:06:21.705Z,100622.03
2023-05-10T00:09:23.992Z,100630.00
2023-05-10T00:12:26.283Z,100620.22
2023-05-10T00:15:33.917Z,100629.47
2023-05-10T00:18:36.226Z,100635.88
2023-05-10T00:21:38.449Z,100628.16
2023-05-10T00:24:40.903Z,100623.59
2023-05-10T00:27:45.356Z,100624.31
2023-05-10T00:30:50.354Z,100629.09
2023-05-10T00:33:55.453Z,100616.25
2023-05-10T00:37:04.994Z,100620.91
2023-05-10T00:40:12.964Z,100618.31
2023-05-10T00:43:16.913Z,100623.50
2023-05-10T00:46:19.513Z,100626.53
2023-05-10T00:49:22.242Z,100622.53
2023-05-10T00:52:31.131Z,100628.88
2023-05-10T00:55:37.411Z,100619.06
2023-05-10T00:58:42.732Z,100616.34
2023-05-10T01:01:50.743Z,100615.44
2023-05-10T01:04:53.341Z,100616.03
2023-05-10T01:07:55.722Z,100613.13
2023-05-10T01:11:00.650Z,100610.69
2023-05-10T01:14:04.845Z,100615.31
2023-05-10T01:17:08.641Z,100597.19
2023-05-10T01:20:12.897Z,100616.91
2023-05-10T01:23:38.690Z,100599.03
2023-05-10T01:26:50.133Z,100615.63
2023-05-10T01:30:21.854Z,100612.78
2023-05-10T01:33:25.820Z,100600.59
2023-05-10T01:36:31.861Z,100599.19
2023-05-10T01:39:34.045Z,100604.81
2023-05-10T01:42:51.077Z,100606.53
2023-05-10T01:46:01.024Z,100602.91
2023-05-10T01:49:08.598Z,100603.31
2023-05-10T01:52:16.891Z,100603.63
2023-05-10T01:55:24.434Z,100594.91
2023-05-10T01:58:31.512Z,100603.00
2023-05-10T02:01:35.163Z,100597.38
2023-05-10T02:04:39.592Z,100583.16
2023-05-10T02:07:45.735Z,100595.22
2023-05-10T02:10:50.214Z,100577.16
2023-05-10T02:13:53.948Z,100591.50
2023-05-10T02:17:03.002Z,100581.06
2023-05-10T02:20:08.822Z,100581.91
2023-05-10T02:23:14.416Z,100583.34
2023-05-10T02:26:19.966Z,100588.75
2023-05-10T02:29:24.633Z,100576.28
2023-05-10T02:32:28.927Z,100573.09
2023-05-10T02:35:34.530Z,100576.69
2023-05-10T02:38:42.706Z,100580.06
2023-05-10T02:41:53.430Z,100583.75
2023-05-10T02:45:02.705Z,100585.09
2023-05-10T02:48:05.970Z,100585.09
2023-05-10T02:51:09.168Z,100578.88
2023-05-10T02:54:21.323Z,100585.69
2023-05-10T02:57:28.658Z,100587.75
2023-05-10T03:00:31.837Z,100562.19
2023-05-10T03:03:34.386Z,100583.13
2023-05-10T03:06:36.919Z,100587.03
2023-05-10T03:09:43.513Z,100589.03
2023-05-10T03:13:11.376Z,100585.81
2023-05-10T03:16:30.344Z,100582.78
2023-05-10T03:19:52.530Z,100585.41
2023-05-10T03:23:02.825Z,100579.72
2023-05-10T03:26:06.997Z,100584.69
2023-05-10T03:29:10.146Z,100576.03
2023-05-10T03:32:12.536Z,100578.44
2023-05-10T03:35:15.295Z,100572.25
2023-05-10T03:38:18.503Z,100573.22
2023-05-10T03:41:22.326Z,100581.78
2023-05-10T03:44:24.610Z,100561.72
2023-05-10T03:47:30.807Z,100569.19
2023-05-10T03:50:38.476Z,100577.84
2023-05-10T03:53:43.622Z,100545.41
2023-05-10T03:56:47.575Z,100582.78
2023-05-10T03:59:51.160Z,100581.34
2023-05-10T04:02:53.668Z,100584.34
2023-05-10T04:06:03.332Z,100574.19
2023-05-10T04:09:05.706Z,100583.75
2023-05-10T04:12:10.755Z,100569.97
2023-05-10T04:15:13.287Z,100578.50
2023-05-10T04:18:15.557Z,100563.94
2023-05-10T04:21:17.845Z,100561.44
2023-05-10T04:24:20.192Z,100573.44
2023-05-10T04:27:22.552Z,100579.94
2023-05-10T04:30:26.103Z,100583.28
2023-05-10T04:33:30.714Z,100575.03
2023-05-10T04:36:36.861Z,100580.06
2023-05-10T04:39:42.442Z,100584.03
2023-05-10T04:42:45.190Z,100573.25
2023-05-10T04:45:51.279Z,100572.75
2023-05-10T04:48:53.824Z,100576.63
2023-05-10T04:51:56.542Z,100582.78
2023-05-10T04:55:01.154Z,100579.81
2023-05-10T04:58:05.971Z,100570.78
2023-05-10T05:01:09.437Z,100582.66
2023-05-10T05:04:11.971Z,100581.25
2023-05-10T05:07:15.907Z,100582.31
2023-05-10T05:10:20.734Z,100583.84
2023-05-10T05:13:27.752Z,100593.84
2023-05-10T05:16:32.074Z,100587.19
2023-05-10T05:19:34.506Z,100587.00
2023-05-10T05:22:38.268Z,100593.38
2023-05-10T05:25:40.528Z,100595.16
2023-05-10T05:28:45.218Z,100597.53
2023-05-10T05:31:47.522Z,100605.78
2023-05-10T05:34:53.162Z,100595.50
2023-05-10T05:37:55.452Z,100607.19
2023-05-10T05:40:57.868Z,100609.59
2023-05-10T05:44:02.832Z,100607.19
2023-05-10T05:47:05.255Z,100607.31
2023-05-10T05:50:07.966Z,100609.16
2023-05-10T05:53:10.876Z,100606.81
2023-05-10T05:56:15.420Z,100608.84
2023-05-10T05:59:20.051Z,100617.00
2023-05-10T06:02:22.450Z,100608.19
2023-05-10T06:05:24.735Z,100613.53
2023-05-10T06:08:31.642Z,100609.06
2023-05-10T06:11:36.256Z,100598.59
2023-05-10T06:14:40.863Z,100609.53
2023-05-10T06:17:50.338Z,100605.63
2023-05-10T06:20:52.786Z,100631.66
2023-05-10T06:23:57.848Z,100627.69
2023-05-10T06:27:01.388Z,100633.38
2023-05-10T06:30:12.487Z,100619.38
2023-05-10T06:33:17.816Z,100619.19
2023-05-10T06:36:20.111Z,100627.03
2023-05-10T06:39:22.522Z,100627.84
2023-05-10T06:42:26.444Z,100609.28
2023-05-10T06:45:30.886Z,100634.75
2023-05-10T06:48:35.754Z,100632.63
2023-05-10T06:51:38.205Z,100621.69
2023-05-10T06:54:40.465Z,100620.97
2023-05-10T06:57:43.024Z,100611.91
2023-05-10T07:00:50.189Z,100605.19
2023-05-10T07:03:54.214Z,100612.91
2023-05-10T07:06:58.895Z,100617.75
2023-05-10T07:10:03.619Z,100612.28
2023-05-10T07:13:06.082Z,100614.00
2023-05-10T07:16:13.450Z,100623.09
2023-05-10T07:19:15.885Z,100617.50
2023-05-10T07:22:18.569Z,100610.97
2023-05-10T07:25:23.041Z,100610.59
2023-05-10T07:28:30.079Z,100606.09
2023-05-10T07:31:32.471Z,100606.03
2023-05-10T07:34:35.020Z,100602.53
2023-05-10T07:37:40.585Z,100601.94
2023-05-10T07:40:45.374Z,100585.47
2023-05-10T07:43:54.900Z,100588.56
2023-05-10T07:47:02.049Z,100591.88
2023-05-10T07:50:07.348Z,100599.63
2023-05-10T07:53:11.878Z,100600.66
2023-05-10T07:56:30.710Z,100595.00
2023-05-10T07:59:34.055Z,100596.81
2023-05-10T08:02:38.660Z,100602.56
2023-05-10T08:05:41.545Z,100609.56
2023-05-10T08:08:46.622Z,100594.19
2023-05-10T08:11:48.814Z,100602.31
2023-05-10T08:14:51.342Z,100606.59
2023-05-10T08:17:53.797Z,100601.97
2023-05-10T08:20:58.415Z,100611.75
2023-05-10T08:24:00.732Z,100625.63
2023-05-10T08:27:03.204Z,100593.91
2023-05-10T08:30:06.202Z,100592.13
2023-05-10T08:33:08.595Z,100593.94
2023-05-10T08:36:16.209Z,100597.91
2023-05-10T08:39:29.701Z,100590.22
2023-05-10T08:42:37.165Z,100602.13
2023-05-10T08:45:43.830Z,100587.28
2023-05-10T08:48:49.778Z,100594.34
2023-05-10T08:51:56.907Z,100594.75
2023-05-10T08:55:01.932Z,100595.88
2023-05-10T08:58:07.701Z,100590.28
2023-05-10T09:01:13.734Z,100599.31
2023-05-10T09:04:18.760Z,100591.41
2023-05-10T09:07:21.179Z,100606.38
2023-05-10T09:10:27.018Z,100604.69
2023-05-10T09:13:29.614Z,100593.75
2023-05-10T09:16:31.942Z,100577.41
2023-05-10T09:19:36.520Z,100591.97
2023-05-10T09:22:41.197Z,100594.31
2023-05-10T09:25:43.649Z,100591.03
2023-05-10T09:28:59.851Z,100583.28
2023-05-10T09:32:05.257Z,100582.09
2023-05-10T09:35:16.655Z,100573.38
2023-05-10T09:38:19.266Z,100595.88
2023-05-10T09:41:24.510Z,100576.63
2023-05-10T09:44:27.480Z,100578.78
2023-05-10T09:47:38.454Z,100575.75
2023-05-10T09:50:41.366Z,100576.56
2023-05-10T09:53:44.506Z,100583.47
2023-05-10T09:56:49.614Z,100575.84
2023-05-10T09:59:55.301Z,100573.63
2023-05-10T10:02:59.635Z,100567.78
2023-05-10T10:06:01.961Z,100561.66
2023-05-10T10:09:07.064Z,100564.06
2023-05-10T10:12:11.617Z,100554.19
2023-05-10T10:15:17.091Z,100550.53
2023-05-10T10:18:28.069Z,100554.75
2023-05-10T10:21:30.508Z,100554.53
2023-05-10T10:24:35.179Z,100542.94
2023-05-10T10:27:43.427Z,100541.16
2023-05-10T10:30:52.377Z,100546.91
2023-05-10T10:34:08.658Z,100526.97
2023-05-10T10:37:11.244Z,100533.16
2023-05-10T10:40:27.860Z,100536.53
2023-05-10T10:43:32.628Z,100525.50
2023-05-10T10:46:35.596Z,100518.31
2023-05-10T10:50:01.183Z,100516.66
2023-05-10T10:53:13.140Z,100516.59
2023-05-10T10:56:24.738Z,100506.75
2023-05-10T10:59:31.453Z,100507.75
2023-05-10T11:02:49.965Z,100504.25
2023-05-10T11:06:02.855Z,100506.72
2023-05-10T11:09:09.791Z,100503.94
2023-05-10T11:12:12.161Z,100497.28
2023-05-10T11:15:14.711Z,100483.53
2023-05-10T11:18:17.886Z,100471.38
2023-05-10T11:21:25.485Z,100502.72
2023-05-10T11:24:29.181Z,100486.78
2023-05-10T11:27:38.634Z,100494.44
2023-05-10T11:30:48.132Z,100479.34
2023-05-10T11:33:55.307Z,100475.28
2023-05-10T11:36:58.603Z,100486.88
2023-05-10T11:40:01.416Z,100474.06
2023-05-10T11:43:04.749Z,100486.59
2023-05-10T11:46:13.020Z,100479.34
2023-05-10T11:49:18.769Z,100468.09
2023-05-10T11:52:23.367Z,100478.03
2023-05-10T11:55:25.899Z,100489.91
2023-05-10T11:58:28.387Z,100477.78
2023-05-10T12:01:37.150Z,100462.88
2023-05-10T12:04:39.629Z,100463.16
2023-05-10T12:07:41.941Z,100469.81
2023-05-10T12:10:46.526Z,100472.28
2023-05-10T12:13:51.545Z,100469.50
2023-05-10T12:16:53.893Z,100473.91
2023-05-10T12:20:16.152Z,100467.59
2023-05-10T12:23:18.869Z,100476.41
2023-05-10T12:26:29.821Z,100470.91
2023-05-10T12:29:35.724Z,100462.88
2023-05-10T12:32:44.282Z,100467.59
2023-05-10T12:35:57.381Z,100462.38
2023-05-10T12:39:05.939Z,100456.78
2023-05-10T12:42:10.632Z,100469.19
2023-05-10T12:45:18.814Z,100453.22
2023-05-10T12:48:21.366Z,100439.94
2023-05-10T12:51:26.426Z,100428.91
2023-05-10T12:54:28.927Z,100444.44
2023-05-10T12:57:31.666Z,100438.03
2023-05-10T13:00:34.028Z,100432.22
2023-05-10T13:03:41.478Z,100431.13
2023-05-10T13:06:43.957Z,100425.88
2023-05-10T13:09:46.248Z,100434.78
2023-05-10T13:12:48.449Z,100419.28
2023-05-10T13:15:53.153Z,100418.47
2023-05-10T13:18:55.546Z,100406.34
2023-05-10T13:22:02.993Z,100401.94
2023-05-10T13:25:05.770Z,100405.78
2023-05-10T13:28:10.636Z,100409.09
2023-05-10T13:31:17.669Z,100385.06
2023-05-10T13:34:22.704Z,100389.47
2023-05-10T13:37:25.015Z,100377.59
2023-05-10T13:40:27.318Z,100385.88
2023-05-10T13:43:30.478Z,100378.19
2023-05-10T13:46:35.004Z,100394.16
2023-05-10T13:49:41.961Z,100355.53
2023-05-10T13:52:44.301Z,100380.34
2023-05-10T13:55:48.856Z,100376.53
2023-05-10T13:58:51.193Z,100373.72
2023-05-10T14:01:53.651Z,100369.28
2023-05-10T14:04:58.041Z,100350.56
2023-05-10T14:08:02.483Z,100356.09
2023-05-10T14:11:09.472Z,100354.69
2023-05-10T14:14:11.776Z,100353.56
2023-05-10T14:17:18.531Z,100356.06
2023-05-10T14:20:20.843Z,100350.50
2023-05-10T14:23:26.799Z,100358.22
2023-05-10T14:26:31.665Z,100348.91
2023-05-10T14:29:33.996Z,100346.72
2023-05-10T14:32:37.672Z,100342.84
2023-05-10T14:35:40.789Z,100354.97
2023-05-10T14:38:50.481Z,100332.91
2023-05-10T14:41:55.504Z,100327.63
2023-05-10T14:44:57.953Z,100342.53
2023-05-10T14:48:05.487Z,100343.09
2023-05-10T14:51:10.297Z,100349.22
2023-05-10T14:54:15.296Z,100341.47
2023-05-10T14:57:17.714Z,100343.09
2023-05-10T15:00:21.787Z,100346.44
2023-05-10T15:03:27.208Z,100358.56
2023-05-10T15:06:36.173Z,100374.56
2023-05-10T15:09:40.889Z,100353.34
2023-05-10T15:12:45.759Z,100342.03
2023-05-10T15:15:50.860Z,100349.75
2023-05-10T15:18:58.759Z,100351.13
2023-05-10T15:22:01.256Z,100359.13
2023-05-10T15:25:05.743Z,100362.72
2023-05-10T15:28:12.716Z,100321.59
2023-05-10T15:31:17.076Z,100345.31
2023-05-10T15:34:22.402Z,100346.16
2023-05-10T15:37:25.453Z,100338.44
2023-05-10T15:40:27.730Z,100345.03
2023-05-10T15:43:30.003Z,100334.31
2023-05-10T15:46:32.315Z,100326.84
2023-05-10T15:49:37.048Z,100346.44
2023-05-10T15:52:39.492Z,100330.16
2023-05-10T15:55:41.758Z,100344.53
2023-05-10T15:58:46.544Z,100344.78
2023-05-10T16:01:51.979Z,100327.97
2023-05-10T16:04:54.218Z,100333.19
2023-05-10T16:07:56.910Z,100323.81
2023-05-10T16:11:01.589Z,100346.72
2023-05-10T16:14:07.302Z,100351.94
2023-05-10T16:17:10.006Z,100341.75
2023-05-10T16:20:14.755Z,100329.88
2023-05-10T16:23:19.744Z,100332.38
2023-05-10T16:26:24.410Z,100323.53
2023-05-10T16:29:29.061Z,100331.81
2023-05-10T16:32:31.417Z,100328.50
2023-05-10T16:35:36.001Z,100330.72
2023-05-10T16:38:38.489Z,100347.28
2023-05-10T16:41:43.778Z,100350.59
2023-05-10T16:44:48.369Z,100350.03
2023-05-10T16:47:50.586Z,100355.53
2023-05-10T16:50:52.888Z,100352.22
2023-05-10T16:53:56.094Z,100362.72
2023-05-10T16:56:58.369Z,100348.66
2023-05-10T17:00:02.713Z,100365.72
2023-05-10T17:03:07.769Z,100354.41
2023-05-10T17:06:14.060Z,100365.44
2023-05-10T17:09:17.578Z,100363.47
2023-05-10T17:12:28.139Z,100372.56
2023-05-10T17:15:32.664Z,100367.88
2023-05-10T17:18:39.711Z,100363.19
2023-05-10T17:21:42.065Z,100366.97
2023-05-10T17:24:45.859Z,100392.31
2023-05-10T17:27:53.216Z,100377.44
2023-05-10T17:30:58.534Z,100376.31
2023-05-10T17:34:05.443Z,100372.47
2023-05-10T17:37:12.174Z,100353.97
2023-05-10T17:40:18.248Z,100382.06
2023-05-10T17:43:21.514Z,100384.56
2023-05-10T17:46:26.581Z,100382.56
2023-05-10T17:49:28.909Z,100376.22
2023-05-10T17:52:33.920Z,100380.63
2023-05-10T17:55:39.280Z,100390.00
2023-05-10T17:58:41.845Z,100383.34
2023-05-10T18:01:46.573Z,100391.59
2023-05-10T18:04:49.531Z,100392.38
2023-05-10T18:07:54.349Z,100397.56
2023-05-10T18:10:59.270Z,100398.09
2023-05-10T18:14:04.924Z,100404.16
2023-05-10T18:17:07.837Z,100390.88
2023-05-10T18:20:10.707Z,100404.06
2023-05-10T18:23:13.301Z,100405.66
2023-05-10T18:26:18.599Z,100407.84
2023-05-10T18:29:24.295Z,100408.38
2023-05-10T18:32:29.166Z,100412.19
2023-05-10T18:35:36.496Z,100426.69
2023-05-10T18:38:41.320Z,100403.28
2023-05-10T18:41:44.727Z,100426.97
2023-05-10T18:44:49.525Z,100421.69
2023-05-10T18:47:53.405Z,100427.47
2023-05-10T18:50:55.791Z,100430.97
2023-05-10T18:54:03.543Z,100432.91
2023-05-10T18:57:08.305Z,100425.72
2023-05-10T19:00:14.041Z,100428.16
2023-05-10T19:03:21.214Z,100437.69
2023-05-10T19:06:23.548Z,100440.44
2023-05-10T19:09:27.761Z,100438.75
2023-05-10T19:12:30.578Z,100440.09
2023-05-10T19:15:37.469Z,100444.25
2023-05-10T19:18:44.134Z,100445.28
2023-05-10T19:21:48.358Z,100451.91
2023-05-10T19:24:50.678Z,100443.94
2023-05-10T19:27:58.000Z,100450.50
2023-05-10T19:31:00.452Z,100445.59
2023-05-10T19:34:04.217Z,100438.69
2023-05-10T19:37:08.801Z,100446.91
2023-05-10T19:40:11.476Z,100446.94
2023-05-10T19:43:13.851Z,100448.00
2023-05-10T19:46:17.915Z,100444.56
2023-05-10T19:49:27.392Z,100445.69
2023-05-10T19:52:32.234Z,100439.56
2023-05-10T19:55:37.359Z,100435.94
2023-05-10T19:58:44.913Z,100443.03
2023-05-10T20:01:47.213Z,100442.50
2023-05-10T20:04:50.077Z,100439.97
2023-05-10T20:07:53.471Z,100440.81
2023-05-10T20:10:59.029Z,100436.00
2023-05-10T20:14:08.404Z,100443.97
2023-05-10T20:17:10.833Z,100456.31
2023-05-10T20:20:17.164Z,100448.63
2023-05-10T20:23:19.588Z,100446.97
2023-05-10T20:26:22.003Z,100457.41
2023-05-10T20:29:24.254Z,100444.84
2023-05-10T20:32:29.104Z,100438.47
2023-05-10T20:35:34.276Z,100446.88
2023-05-10T20:38:36.878Z,100443.56
2023-05-10T20:41:42.017Z,100446.63
2023-05-10T20:44:44.249Z,100450.22
2023-05-10T20:47:52.365Z,100447.47
2023-05-10T20:50:57.214Z,100451.88
2023-05-10T20:54:02.565Z,100450.72
2023-05-10T20:57:04.998Z,100450.13
2023-05-10T21:00:11.012Z,100428.38
2023-05-10T21:03:18.196Z,100434.75
2023-05-10T21:06:20.526Z,100446.56
2023-05-10T21:09:25.307Z,100435.75
2023-05-10T21:12:27.520Z,100440.19
2023-05-10T21:15:29.794Z,100429.59
2023-05-10T21:18:34.344Z,100430.75
2023-05-10T21:21:36.599Z,100432.94
2023-05-10T21:24:39.235Z,100440.28
2023-05-10T21:27:47.252Z,100437.91
2023-05-10T21:30:49.970Z,100443.34
2023-05-10T21:33:52.200Z,100440.22
2023-05-10T21:36:54.626Z,100441.63
2023-05-10T21:39:57.012Z,100443.47
2023-05-10T21:42:59.441Z,100442.13
2023-05-10T21:46:04.726Z,100432.69
2023-05-10T21:49:09.649Z,100428.19
2023-05-10T21:52:16.472Z,100445.25
2023-05-10T21:55:26.522Z,100456.28
2023-05-10T21:58:31.431Z,100450.97
2023-05-10T22:01:36.083Z,100449.06
2023-05-10T22:04:38.405Z,100447.31
2023-05-10T22:07:40.709Z,100446.81
2023-05-10T22:10:43.145Z,100453.47
2023-05-10T22:13:47.677Z,100449.00
2023-05-10T22:16:49.977Z,100452.81
2023-05-10T22:19:52.356Z,100462.00
2023-05-10T22:22:55.188Z,100452.34
2023-05-10T22:26:04.159Z,100459.19
2023-05-10T22:29:09.260Z,100458.53
2023-05-10T22:32:11.522Z,100462.84
2023-05-10T22:35:13.825Z,100463.34
2023-05-10T22:38:16.265Z,100468.75
2023-05-10T22:41:18.662Z,100466.00
2023-05-10T22:44:20.943Z,100469.75
2023-05-10T22:47:23.176Z,100457.53
2023-05-10T22:50:25.482Z,100462.69
2023-05-10T22:53:33.396Z,100470.66
2023-05-10T22:56:35.874Z,100468.97
2023-05-10T22:59:38.166Z,100465.88
2023-05-10T23:02:43.199Z,100481.53
2023-05-10T23:05:45.497Z,100476.25
2023-05-10T23:08:48.150Z,100467.59
2023-05-10T23:11:53.395Z,100471.88
2023-05-10T23:14:56.568Z,100477.38
2023-05-10T23:18:01.785Z,100475.00
2023-05-10T23:21:04.208Z,100477.66
2023-05-10T23:24:11.685Z,100477.66
2023-05-10T23:27:16.918Z,100478.34
2023-05-10T23:30:19.560Z,100471.66
2023-05-10T23:33:22.398Z,100475.88
2023-05-10T23:36:24.625Z,100473.75
2023-05-10T23:39:29.121Z,100476.59
2023-05-10T23:42:34.950Z,100478.25
2023-05-10T23:45:37.264Z,100462.13
2023-05-10T23:48:39.886Z,100472.56
2023-05-10T23:51:42.237Z,100481.47
2023-05-10T23:54:45.959Z,100487.53
2023-05-10T23:57:48.323Z,100489.22
